San Jose, CA (95101)

10:44 PM PST on January 23, 2017 (GMT -0800)
San Jose Plant51 | | Change Station

Elev 102 ft 37.33 °N, 121.90 °W | Updated 4 seconds ago

Light Rain
Light Rain
45.4 °F
Feels Like 45 °F
N
0.0
Wind Variable Wind from North
Gusts 6.0 mph

Today
High -- | Low -- °F
--% Chance of Precip.
Yesterday
High -- | Low -- °F
Precip. -- in
Pressure 29.91 in
Visibility 10.0 miles
Clouds Few 1000 ft
Scattered Clouds 4900 ft
Mostly Cloudy 10000 ft
Windchill 45 °F
Dew Point 40 °F
Humidity 81%
Rainfall 0.09 in
Snow Depth Not available.
7:16 AM 5:22 PM
Waning Crescent, 13% visible
METAR KSJC 240553Z 11005KT 10SM -RA FEW010 SCT049 BKN100 08/05 A2991 RMK AO2 RAB40 SLP129 P0000 60010 T00780050 10100 20078 53007
Pressure 29.91 in
Visibility 10.0 miles
Clouds Few 1000 ft
Scattered Clouds 4900 ft
Mostly Cloudy 10000 ft
Windchill 45 °F
Dew Point 40 °F
Humidity 81%
Rainfall 0.09 in
Snow Depth Not available.
7:16 AM 5:22 PM
Waning Crescent, 13% visible
METAR KSJC 240553Z 11005KT 10SM -RA FEW010 SCT049 BKN100 08/05 A2991 RMK AO2 RAB40 SLP129 P0000 60010 T00780050 10100 20078 53007

Get Your Daily Forecast Email!

Thanks for signing up!

Be on the lookout for a verification email in your inbox.

You'll start receiving the daily forecast at 8 AM.

×

10-Day Weather Forecast

Almanac

Astronomy

Jan. 23, 2017 Rise Set
Actual Time
Civil Twilight
Nautical Twilight
Astronomical Twilight
Moon
Length of Visible Light
Length of Day
Tomorrow will be .
, % of the Moon is Illuminated

Today's Extremes

State Highs State Lows

Community

WunderPhotos

Upload Photos

1,962,540 photos uploaded!

WunderBlog® & News

Nearby

Air Quality

  Air Quality AQ Index Pollutant
Not available.

Snow Depth

Station Depth Elevation

Earthquake Activity

City Distance Mag. Time & Date
Minimum magnitude displayed is 2.5.

Coastal Water Temperatures

Place Temperature

Stations

Nearby Weather Stations

Station Location Temp. Windchill Dew Point Humidity Wind Precip. Elev Updated Type
                   

Watches & Warnings

There are currently no watches in effect.